createdAt,value
2022-12-18T00:00:00.367Z,101903.31
2022-12-18T00:03:03.225Z,101911.00
2022-12-18T00:06:07.332Z,101917.28
2022-12-18T00:09:09.925Z,101906.03
2022-12-18T00:15:18.810Z,101912.59
2022-12-18T00:18:21.645Z,101918.19
2022-12-18T00:21:24.228Z,101917.97
2022-12-18T00:24:27.017Z,101914.22
2022-12-18T00:27:29.524Z,101927.84
2022-12-18T00:30:32.536Z,101923.34
2022-12-18T00:33:35.718Z,101927.84
2022-12-18T00:36:38.818Z,101932.69
2022-12-18T00:39:41.364Z,101930.88
2022-12-18T00:42:59.366Z,101945.44
2022-12-18T00:46:02.116Z,101961.16
2022-12-18T00:49:05.331Z,101951.87
2022-12-18T00:52:07.789Z,101956.50
2022-12-18T00:55:10.920Z,101947.75
2022-12-18T00:58:14.907Z,101944.03
2022-12-18T01:01:18.023Z,101946.78
2022-12-18T01:04:20.759Z,101947.88
2022-12-18T01:07:23.550Z,101962.66
2022-12-18T01:10:26.838Z,101967.94
2022-12-18T01:13:33.394Z,101966.50
2022-12-18T01:16:36.037Z,101974.78
2022-12-18T01:19:40.695Z,101970.09
2022-12-18T01:22:44.294Z,101974.84
2022-12-18T01:25:47.072Z,101981.81
2022-12-18T01:28:49.927Z,101975.78
2022-12-18T01:31:56.654Z,101981.09
2022-12-18T01:34:59.181Z,101980.19
2022-12-18T01:38:03.132Z,101988.69
2022-12-18T01:41:05.565Z,101986.28
2022-12-18T01:44:57.296Z,101989.53
2022-12-18T01:48:03.890Z,101997.50
2022-12-18T01:51:09.345Z,101998.28
2022-12-18T01:54:11.871Z,102002.13
2022-12-18T01:57:14.850Z,102004.75
2022-12-18T02:00:20.759Z,102012.44
2022-12-18T02:03:23.598Z,102007.28
2022-12-18T02:06:40.018Z,102015.75
2022-12-18T02:10:21.770Z,102016.69
2022-12-18T02:13:38.361Z,102028.81
2022-12-18T02:16:46.663Z,102023.25
2022-12-18T02:19:49.458Z,102031.00
2022-12-18T02:23:13.449Z,102038.06
2022-12-18T02:26:32.012Z,102049.59
2022-12-18T02:29:41.829Z,102051.53
2022-12-18T02:32:51.798Z,102056.59
2022-12-18T02:35:55.783Z,102040.00
2022-12-18T02:39:00.175Z,102051.19
2022-12-18T02:42:08.775Z,102048.34
2022-12-18T02:45:11.740Z,102055.66
2022-12-18T02:48:14.509Z,102060.59
2022-12-18T02:52:06.129Z,102052.94
2022-12-18T02:55:30.866Z,102053.50
2022-12-18T02:58:56.008Z,102067.00
2022-12-18T03:02:04.001Z,102070.75
2022-12-18T03:05:32.829Z,102067.91
2022-12-18T03:08:40.445Z,102071.66
2022-12-18T03:12:05.390Z,102075.13
2022-12-18T03:15:17.973Z,102084.16
2022-12-18T03:18:52.285Z,102086.09
2022-12-18T03:21:57.181Z,102091.81
2022-12-18T03:25:02.237Z,102091.69
2022-12-18T03:28:07.301Z,102087.91
2022-12-18T03:31:12.492Z,102090.87
2022-12-18T03:34:20.215Z,102092.28
2022-12-18T03:37:23.428Z,102081.06
2022-12-18T03:40:41.808Z,102088.38
2022-12-18T03:43:51.880Z,102093.63
2022-12-18T03:47:13.330Z,102099.66
2022-12-18T03:50:21.768Z,102096.56
2022-12-18T03:53:50.168Z,102100.00
2022-12-18T03:57:00.847Z,102103.84
2022-12-18T04:00:13.304Z,102107.03
2022-12-18T04:03:17.641Z,102113.88
2022-12-18T04:06:21.324Z,102117.87
2022-12-18T04:09:24.149Z,102120.19
2022-12-18T04:12:30.198Z,102124.84
2022-12-18T04:15:35.782Z,102121.13
2022-12-18T04:18:39.081Z,102128.69
2022-12-18T04:21:41.737Z,102132.84
2022-12-18T04:24:45.752Z,102139.50
2022-12-18T04:27:48.791Z,102136.62
2022-12-18T04:30:51.653Z,102137.12
2022-12-18T04:33:55.796Z,102148.53
2022-12-18T04:36:58.903Z,102155.13
2022-12-18T04:40:01.996Z,102148.87
2022-12-18T04:43:06.114Z,102153.53
2022-12-18T04:46:09.589Z,102157.06
2022-12-18T04:49:13.429Z,102166.66
2022-12-18T04:52:16.254Z,102171.06
2022-12-18T04:55:19.006Z,102168.06
2022-12-18T04:58:21.546Z,102171.06
2022-12-18T05:01:26.092Z,102182.22
2022-12-18T05:04:30.737Z,102182.34
2022-12-18T05:07:33.530Z,102186.28
2022-12-18T05:10:38.203Z,102189.84
2022-12-18T05:13:41.821Z,102195.38
2022-12-18T05:16:44.640Z,102200.09
2022-12-18T05:19:48.700Z,102206.53
2022-12-18T05:22:52.452Z,102213.13
2022-12-18T05:25:57.580Z,102212.50
2022-12-18T05:29:00.072Z,102211.31
2022-12-18T05:32:02.888Z,102214.09
2022-12-18T05:35:06.559Z,102218.41
2022-12-18T05:38:09.345Z,102224.44
2022-12-18T05:41:11.981Z,102218.28
2022-12-18T05:44:14.916Z,102227.72
2022-12-18T05:47:17.452Z,102235.72
2022-12-18T05:50:20.276Z,102230.84
2022-12-18T05:53:22.849Z,102228.25
2022-12-18T05:56:25.570Z,102232.97
2022-12-18T05:59:28.059Z,102234.56
2022-12-18T06:02:30.838Z,102237.03
2022-12-18T06:05:38.244Z,102241.62
2022-12-18T06:08:45.956Z,102240.81
2022-12-18T06:11:49.199Z,102246.31
2022-12-18T06:14:51.784Z,102251.56
2022-12-18T06:17:54.558Z,102247.34
2022-12-18T06:20:57.830Z,102259.25
2022-12-18T06:24:01.208Z,102243.66
2022-12-18T06:27:03.815Z,102264.25
2022-12-18T06:30:07.409Z,102267.13
2022-12-18T06:33:10.131Z,102267.28
2022-12-18T06:36:13.879Z,102269.50
2022-12-18T06:39:16.415Z,102269.50
2022-12-18T06:42:19.330Z,102278.13
2022-12-18T06:45:22.287Z,102281.16
2022-12-18T06:48:25.269Z,102273.72
2022-12-18T06:51:27.838Z,102283.91
2022-12-18T06:54:30.622Z,102284.31
2022-12-18T06:57:33.388Z,102283.91
2022-12-18T07:00:36.215Z,102286.41
2022-12-18T07:03:42.828Z,102313.78
2022-12-18T07:06:45.998Z,102325.31
2022-12-18T07:09:48.592Z,102328.59
2022-12-18T07:12:51.444Z,102318.63
2022-12-18T07:15:54.018Z,102329.91
2022-12-18T07:18:57.564Z,102341.19
2022-12-18T07:22:00.096Z,102344.22
2022-12-18T07:25:02.890Z,102346.19
2022-12-18T07:28:05.563Z,102354.28
2022-12-18T07:31:11.705Z,102352.31
2022-12-18T07:34:16.187Z,102363.75
2022-12-18T07:37:19.103Z,102363.47
2022-12-18T07:40:21.715Z,102374.72
2022-12-18T07:43:24.582Z,102368.81
2022-12-18T07:46:27.283Z,102374.84
2022-12-18T07:49:30.128Z,102382.91
2022-12-18T07:52:32.634Z,102378.03
2022-12-18T07:55:59.906Z,102380.19
2022-12-18T07:59:00.550Z,102391.63
2022-12-18T08:02:04.174Z,102381.81
2022-12-18T08:05:07.222Z,102390.97
2022-12-18T08:08:09.820Z,102390.78
2022-12-18T08:11:12.677Z,102402.09
2022-12-18T08:14:15.850Z,102405.81
2022-12-18T08:17:18.682Z,102407.91
2022-12-18T08:20:21.169Z,102404.53
2022-12-18T08:23:26.536Z,102409.84
2022-12-18T08:26:32.097Z,102411.06
2022-12-18T08:29:34.870Z,102406.06
2022-12-18T08:32:37.565Z,102404.97
2022-12-18T08:35:45.653Z,102399.34
2022-12-18T08:38:48.830Z,102407.50
2022-12-18T08:42:10.572Z,102405.87
2022-12-18T08:45:13.175Z,102419.53
2022-12-18T08:48:21.848Z,102413.47
2022-12-18T08:51:24.815Z,102410.25
2022-12-18T08:54:27.891Z,102411.88
2022-12-18T08:57:30.518Z,102413.13
2022-12-18T09:00:33.417Z,102415.06
2022-12-18T09:03:36.237Z,102421.81
2022-12-18T09:06:39.074Z,102428.22
2022-12-18T09:09:42.079Z,102424.13
2022-12-18T09:12:44.830Z,102424.78
2022-12-18T09:15:50.570Z,102422.72
2022-12-18T09:19:00.233Z,102416.78
2022-12-18T09:22:03.215Z,102427.06
2022-12-18T09:25:08.950Z,102420.19
2022-12-18T09:28:13.725Z,102423.88
2022-12-18T09:31:17.317Z,102430.97
2022-12-18T09:34:21.999Z,102430.75
2022-12-18T09:37:25.262Z,102402.56
2022-12-18T09:40:30.321Z,102421.78
2022-12-18T09:43:49.350Z,102425.12
2022-12-18T09:46:57.248Z,102418.69
2022-12-18T09:50:04.365Z,102409.75
2022-12-18T09:53:25.595Z,102412.72
2022-12-18T09:56:30.233Z,102416.06
2022-12-18T09:59:40.825Z,102428.81
2022-12-18T10:02:43.978Z,102425.81
2022-12-18T10:05:49.386Z,102426.06
2022-12-18T10:09:37.797Z,102414.81
2022-12-18T10:12:53.602Z,102399.91
2022-12-18T10:16:07.221Z,102397.28
2022-12-18T10:19:29.765Z,102398.06
2022-12-18T10:22:32.401Z,102393.69
2022-12-18T10:25:44.198Z,102399.78
2022-12-18T10:28:47.078Z,102383.25
2022-12-18T10:31:49.881Z,102389.22
2022-12-18T10:34:59.997Z,102400.81
2022-12-18T10:38:25.188Z,102400.50
2022-12-18T10:41:29.174Z,102403.47
2022-12-18T10:44:32.268Z,102400.25
2022-12-18T10:47:35.160Z,102387.25
2022-12-18T10:51:09.663Z,102386.22
2022-12-18T10:54:04.380Z,102389.06
2022-12-18T10:57:30.150Z,102383.69
2022-12-18T11:00:32.778Z,102386.41
2022-12-18T11:03:37.252Z,102379.13
2022-12-18T11:06:55.354Z,102386.63
2022-12-18T11:10:04.829Z,102383.59
2022-12-18T11:13:18.781Z,102386.47
2022-12-18T11:16:21.881Z,102378.97
2022-12-18T11:19:38.626Z,102373.63
2022-12-18T11:22:41.394Z,102376.97
2022-12-18T11:25:52.321Z,102374.59
2022-12-18T11:29:10.097Z,102369.00
2022-12-18T11:32:33.191Z,102378.53
2022-12-18T11:35:47.531Z,102369.91
2022-12-18T11:38:51.901Z,102359.34
2022-12-18T11:42:12.532Z,102360.81
2022-12-18T11:45:15.062Z,102356.84
2022-12-18T11:48:25.726Z,102355.72
2022-12-18T11:51:34.580Z,102356.34
2022-12-18T11:54:37.432Z,102349.84
2022-12-18T11:57:49.869Z,102364.66
2022-12-18T12:00:58.084Z,102365.97
2022-12-18T12:04:32.883Z,102362.00
2022-12-18T12:07:57.360Z,102366.47
2022-12-18T12:11:15.089Z,102375.19
2022-12-18T12:14:23.552Z,102382.47
2022-12-18T12:17:31.661Z,102381.94
2022-12-18T12:20:38.067Z,102369.91
2022-12-18T12:23:56.343Z,102372.50
2022-12-18T12:27:10.865Z,102368.97
2022-12-18T12:30:16.723Z,102359.03
2022-12-18T12:33:32.606Z,102364.63
2022-12-18T12:37:13.065Z,102367.28
2022-12-18T12:40:49.150Z,102359.34
2022-12-18T12:43:49.458Z,102358.34
2022-12-18T12:46:57.489Z,102362.50
2022-12-18T12:50:04.209Z,102360.53
2022-12-18T12:53:10.727Z,102351.00
2022-12-18T12:56:17.246Z,102357.81
2022-12-18T12:59:28.445Z,102366.63
2022-12-18T13:03:04.950Z,102369.88
2022-12-18T13:06:17.129Z,102351.41
2022-12-18T13:09:20.181Z,102348.75
2022-12-18T13:12:41.869Z,102345.72
2022-12-18T13:16:11.683Z,102351.00
2022-12-18T13:19:23.880Z,102353.81
2022-12-18T13:22:32.910Z,102362.75
2022-12-18T13:25:37.296Z,102372.97
2022-12-18T13:28:49.091Z,102369.63
2022-12-18T13:31:51.465Z,102381.59
2022-12-18T13:35:19.695Z,102381.97
2022-12-18T13:38:39.011Z,102382.13
2022-12-18T13:41:43.008Z,102386.25
2022-12-18T13:44:45.524Z,102394.56
2022-12-18T13:47:48.633Z,102390.72
2022-12-18T13:51:04.558Z,102395.44
2022-12-18T13:54:20.815Z,102395.44
2022-12-18T13:57:39.723Z,102398.66
2022-12-18T14:00:43.657Z,102402.87
2022-12-18T14:03:46.543Z,102408.81
2022-12-18T14:06:54.112Z,102409.06
2022-12-18T14:10:06.411Z,102413.53
2022-12-18T14:13:29.541Z,102423.41
2022-12-18T14:16:32.997Z,102419.50
2022-12-18T14:19:36.957Z,102414.25
2022-12-18T14:22:44.846Z,102397.09
2022-12-18T14:25:48.172Z,102422.50
2022-12-18T14:28:51.186Z,102423.53
2022-12-18T14:32:17.451Z,102434.75
2022-12-18T14:35:20.960Z,102436.72
2022-12-18T14:38:28.071Z,102445.56
2022-12-18T14:41:31.043Z,102447.28
2022-12-18T14:44:39.245Z,102444.97
2022-12-18T14:47:47.357Z,102449.09
2022-12-18T14:51:16.927Z,102454.81
2022-12-18T14:54:21.408Z,102456.75
2022-12-18T14:57:33.896Z,102468.53
2022-12-18T15:00:42.791Z,102468.28
2022-12-18T15:03:45.666Z,102469.31
2022-12-18T15:06:49.777Z,102464.37
2022-12-18T15:10:25.409Z,102464.22
2022-12-18T15:13:28.414Z,102475.28
2022-12-18T15:16:31.274Z,102472.62
2022-12-18T15:19:40.142Z,102468.84
2022-12-18T15:22:43.156Z,102468.78
2022-12-18T15:25:47.721Z,102471.41
2022-12-18T15:28:57.245Z,102480.91
2022-12-18T15:32:21.314Z,102474.69
2022-12-18T15:35:25.665Z,102486.38
2022-12-18T15:38:28.896Z,102489.94
2022-12-18T15:41:34.146Z,102488.56
2022-12-18T15:44:39.161Z,102496.56
2022-12-18T15:47:45.355Z,102497.81
2022-12-18T15:50:48.310Z,102502.16
2022-12-18T15:53:52.999Z,102505.84
2022-12-18T15:57:14.531Z,102492.56
2022-12-18T16:00:17.731Z,102475.97
2022-12-18T16:03:20.835Z,102491.41
2022-12-18T16:06:24.304Z,102476.97
2022-12-18T16:09:27.637Z,102483.31
2022-12-18T16:12:30.541Z,102484.22
2022-12-18T16:15:33.666Z,102487.22
2022-12-18T16:18:36.745Z,102497.63
2022-12-18T16:21:39.942Z,102500.56
2022-12-18T16:24:43.784Z,102497.13
2022-12-18T16:27:46.780Z,102488.88
2022-12-18T16:30:51.284Z,102502.03
2022-12-18T16:34:23.473Z,102505.31
2022-12-18T16:37:29.616Z,102515.03
2022-12-18T16:40:33.446Z,102515.28
2022-12-18T16:43:36.326Z,102517.09
2022-12-18T16:46:40.207Z,102522.72
2022-12-18T16:49:45.351Z,102520.25
2022-12-18T16:52:48.911Z,102523.75
2022-12-18T16:55:56.147Z,102525.94
2022-12-18T16:59:01.155Z,102522.66
2022-12-18T17:02:04.301Z,102514.06
2022-12-18T17:05:07.792Z,102510.28
2022-12-18T17:08:10.560Z,102514.13
2022-12-18T17:11:13.674Z,102510.22
2022-12-18T17:14:24.235Z,102513.78
2022-12-18T17:17:27.229Z,102509.13
2022-12-18T17:20:33.033Z,102508.37
2022-12-18T17:23:37.634Z,102519.13
2022-12-18T17:26:40.647Z,102518.50
2022-12-18T17:29:47.817Z,102516.91
2022-12-18T17:32:51.336Z,102515.19
2022-12-18T17:35:58.810Z,102508.47
2022-12-18T17:39:02.572Z,102508.47
2022-12-18T17:42:06.892Z,102509.28
2022-12-18T17:45:11.464Z,102513.38
2022-12-18T17:48:14.376Z,102516.66
2022-12-18T17:51:18.338Z,102524.44
2022-12-18T17:54:21.575Z,102527.97
2022-12-18T17:57:24.200Z,102525.47
2022-12-18T18:00:27.261Z,102525.59
2022-12-18T18:03:32.919Z,102527.56
2022-12-18T18:06:38.705Z,102528.72
2022-12-18T18:09:42.564Z,102517.16
2022-12-18T18:13:04.227Z,102516.66
2022-12-18T18:16:10.023Z,102519.03
2022-12-18T18:19:18.948Z,102521.56
2022-12-18T18:22:21.851Z,102521.31
2022-12-18T18:25:25.967Z,102526.56
2022-12-18T18:28:29.772Z,102528.28
2022-12-18T18:31:35.307Z,102532.75
2022-12-18T18:34:44.528Z,102535.75
2022-12-18T18:37:50.394Z,102526.62
2022-12-18T18:41:02.828Z,102529.28
2022-12-18T18:44:05.790Z,102527.00
2022-12-18T18:47:09.747Z,102522.72
2022-12-18T18:50:13.075Z,102532.31
2022-12-18T18:53:16.023Z,102536.53
2022-12-18T18:59:44.228Z,102538.91
2022-12-18T19:02:48.274Z,102547.34
2022-12-18T19:05:57.343Z,102549.47
2022-12-18T19:09:02.023Z,102546.47
2022-12-18T19:12:24.203Z,102549.25
2022-12-18T19:15:26.962Z,102557.44
2022-12-18T19:18:30.988Z,102564.41
2022-12-18T19:21:34.853Z,102566.78
2022-12-18T19:24:38.441Z,102562.22
2022-12-18T19:27:41.255Z,102559.59
2022-12-18T19:30:44.766Z,102548.44
2022-12-18T19:33:48.221Z,102557.78
2022-12-18T19:36:55.260Z,102560.91
2022-12-18T19:40:06.680Z,102566.44
2022-12-18T19:43:16.032Z,102563.03
2022-12-18T19:46:20.966Z,102563.53
2022-12-18T19:49:23.804Z,102562.88
2022-12-18T19:52:26.918Z,102563.53
2022-12-18T19:55:30.065Z,102561.97
2022-12-18T19:58:36.800Z,102568.94
2022-12-18T20:01:40.192Z,102571.16
2022-12-18T20:04:43.107Z,102566.31
2022-12-18T20:07:45.733Z,102575.59
2022-12-18T20:10:49.121Z,102577.28
2022-12-18T20:13:52.505Z,102591.47
2022-12-18T20:16:55.354Z,102588.72
2022-12-18T20:19:58.393Z,102599.81
2022-12-18T20:23:01.538Z,102599.81
2022-12-18T20:26:04.471Z,102595.87
2022-12-18T20:29:09.887Z,102601.78
2022-12-18T20:32:12.724Z,102594.28
2022-12-18T20:35:15.864Z,102585.97
2022-12-18T20:38:19.224Z,102586.22
2022-12-18T20:41:23.612Z,102588.59
2022-12-18T20:44:26.817Z,102587.72
2022-12-18T20:47:29.831Z,102591.94
2022-12-18T20:50:32.830Z,102582.31
2022-12-18T20:53:36.362Z,102579.31
2022-12-18T20:56:40.104Z,102580.38
2022-12-18T20:59:47.903Z,102563.69
2022-12-18T21:02:50.986Z,102570.38
2022-12-18T21:05:53.875Z,102571.69
2022-12-18T21:08:57.407Z,102563.56
2022-12-18T21:12:18.590Z,102564.88
2022-12-18T21:15:28.205Z,102579.22
2022-12-18T21:18:31.399Z,102569.63
2022-12-18T21:21:35.894Z,102557.56
2022-12-18T21:24:41.532Z,102559.13
2022-12-18T21:27:44.272Z,102568.59
2022-12-18T21:30:47.449Z,102571.50
2022-12-18T21:33:50.498Z,102574.41
2022-12-18T21:36:57.442Z,102551.03
2022-12-18T21:39:59.975Z,102543.94
2022-12-18T21:43:21.421Z,102551.03
2022-12-18T21:46:23.978Z,102544.34
2022-12-18T21:49:27.170Z,102548.94
2022-12-18T21:52:31.900Z,102559.16
2022-12-18T21:55:35.127Z,102554.19
2022-12-18T21:58:37.831Z,102564.03
2022-12-18T22:01:40.716Z,102572.16
2022-12-18T22:04:44.522Z,102564.41
2022-12-18T22:07:47.278Z,102576.63
2022-12-18T22:10:50.149Z,102574.53
2022-12-18T22:13:52.901Z,102566.78
2022-12-18T22:16:58.803Z,102562.97
2022-12-18T22:20:02.329Z,102570.72
2022-12-18T22:23:06.034Z,102565.56
2022-12-18T22:26:10.826Z,102564.00
2022-12-18T22:29:54.327Z,102561.09
2022-12-18T22:32:56.872Z,102566.22
2022-12-18T22:36:06.062Z,102559.78
2022-12-18T22:39:12.355Z,102557.16
2022-12-18T22:42:15.154Z,102557.28
2022-12-18T22:45:17.648Z,102554.00
2022-12-18T22:48:20.487Z,102548.75
2022-12-18T22:51:23.039Z,102546.00
2022-12-18T22:54:25.994Z,102544.00
2022-12-18T22:57:28.580Z,102542.28
2022-12-18T23:00:31.877Z,102537.81
2022-12-18T23:03:34.600Z,102530.31
2022-12-18T23:06:37.388Z,102538.59
2022-12-18T23:09:40.487Z,102548.44
2022-12-18T23:12:43.719Z,102538.31
2022-12-18T23:15:47.406Z,102529.56
2022-12-18T23:18:54.822Z,102528.13
2022-12-18T23:21:58.828Z,102528.84
2022-12-18T23:25:01.674Z,102519.13
2022-12-18T23:28:04.428Z,102507.81
2022-12-18T23:31:10.975Z,102502.09
2022-12-18T23:34:15.098Z,102507.81
2022-12-18T23:37:29.947Z,102501.37
2022-12-18T23:40:40.473Z,102492.69
2022-12-18T23:43:43.271Z,102488.97
2022-12-18T23:46:47.091Z,102492.75
2022-12-18T23:49:49.857Z,102487.37
2022-12-18T23:52:52.475Z,102494.72
2022-12-18T23:55:58.459Z,102487.72
2022-12-18T23:59:02.214Z,102499.00
